Time;durP1;ratioP1;P1;durP2;ratioP2;P2;SDS_P1;SDS_P2;PMS_P1;PMS_P2;Temp;Humidity;BMP_temperature;BMP_pressure;BME280_temperature;BME280_humidity;BME280_pressure;Samples;Min_cycle;Max_cycle;Signal;HPM_P1;HPM_P2
2022/02/20 00:01:59;;;;;;;;;;;;;;;6.19;100.00;97815.50;5094243;28;20299;-76
2022/02/20 00:04:26;;;;;;;;;;;;;;;6.51;100.00;97808.13;5094121;28;19960;-77
2022/02/20 00:06:53;;;;;;;;;;;;;;;6.40;100.00;97792.91;5094907;28;20312;-77
2022/02/20 00:09:20;;;;;;;;;;;;;;;6.66;100.00;97794.75;5095282;28;19934;-76
2022/02/20 00:11:48;;;;;;;;;;;;;;;6.26;100.00;97793.16;5093532;28;20267;-77
2022/02/20 00:14:15;;;;;;;;;;;;;;;6.51;100.00;97771.28;5095294;28;19950;-77
2022/02/20 00:16:42;;;;;;;;;;;;;;;6.17;100.00;97768.78;5095250;28;19923;-77
2022/02/20 00:19:10;;;;;;;;;;;;;;;5.26;100.00;97754.50;5095093;28;19928;-77
2022/02/20 00:21:37;;;;;;;;;;;;;;;5.45;100.00;97762.09;5094852;28;19977;-77
2022/02/20 00:24:05;;;;;;;;;;;;;;;5.93;100.00;97741.50;5094838;28;20454;-76
2022/02/20 00:26:32;;;;;;;;;;;;;;;6.36;100.00;97720.84;5094721;28;19947;-76
2022/02/20 00:28:59;;;;;;;;;;;;;;;5.98;100.00;97736.28;5082977;28;19924;-76
2022/02/20 00:31:28;;;;;;;;;;;;;;;6.39;100.00;97719.22;5057144;28;20330;-77
2022/02/20 00:33:55;;;;;;;;;;;;;;;6.74;100.00;97713.69;5074635;28;19924;-77
2022/02/20 00:36:22;;;;;;;;;;;;;;;6.65;100.00;97721.03;5074295;28;19971;-76
2022/02/20 00:38:49;;;;;;;;;;;;;;;6.91;100.00;97717.25;5074348;28;19924;-76
2022/02/20 00:41:16;;;;;;;;;;;;;;;7.07;100.00;97703.41;5074281;28;19928;-76
2022/02/20 00:43:43;;;;;;;;;;;;;;;6.98;100.00;97689.34;5056509;28;19925;-77
2022/02/20 00:46:10;;;;;;;;;;;;;;;7.09;100.00;97682.31;5073926;28;20392;-76
2022/02/20 00:48:37;;;;;;;;;;;;;;;7.22;100.00;97682.41;5072972;28;19924;-77
2022/02/20 00:51:05;;;;;;;;;;;;;;;7.33;100.00;97682.91;5106615;28;19924;-76
2022/02/20 00:53:32;;;;;;;;;;;;;;;7.30;100.00;97678.22;5074176;28;19982;-77
2022/02/20 00:55:59;;;;;;;;;;;;;;;7.31;100.00;97675.00;5073994;28;19931;-77
2022/02/20 00:58:29;;;;;;;;;;;;;;;7.42;100.00;97669.22;5056716;28;20400;-77
2022/02/20 01:00:55;;;;;;;;;;;;;;;7.35;100.00;97666.59;5089847;28;19954;-77
2022/02/20 01:03:23;;;;;;;;;;;;;;;7.46;100.00;97672.69;5072862;28;19924;-76
2022/02/20 01:05:51;;;;;;;;;;;;;;;7.50;100.00;97653.91;5072436;28;20325;-76
2022/02/20 01:08:18;;;;;;;;;;;;;;;7.43;100.00;97642.97;5074212;28;20019;-77
2022/02/20 01:10:45;;;;;;;;;;;;;;;7.42;100.00;97640.63;5072691;28;20290;-77
2022/02/20 01:13:12;;;;;;;;;;;;;;;7.69;100.00;97633.56;5072669;28;20370;-76
2022/02/20 01:15:40;;;;;;;;;;;;;;;7.93;100.00;97640.44;5106406;28;20358;-76
2022/02/20 01:18:07;;;;;;;;;;;;;;;7.94;100.00;97627.28;5072449;28;20414;-76
2022/02/20 01:20:34;;;;;;;;;;;;;;;7.97;100.00;97627.19;5106320;28;20333;-77
2022/02/20 01:23:03;;;;;;;;;;;;;;;7.98;100.00;97622.41;5072660;28;20444;-76
2022/02/20 01:25:30;;;;;;;;;;;;;;;8.24;100.00;97624.84;5072383;28;19924;-77
2022/02/20 01:27:58;;;;;;;;;;;;;;;8.55;100.00;97617.53;5075561;28;20283;-77
2022/02/20 01:30:25;;;;;;;;;;;;;;;8.52;100.00;97612.09;5109453;28;20378;-77
2022/02/20 01:32:52;;;;;;;;;;;;;;;8.46;100.00;97600.72;5093660;28;20026;-76
2022/02/20 01:35:20;;;;;;;;;;;;;;;8.67;100.00;97596.50;5092538;28;19924;-77
2022/02/20 01:37:49;;;;;;;;;;;;;;;8.66;100.00;97595.69;5092602;28;20379;-77
2022/02/20 01:40:17;;;;;;;;;;;;;;;8.70;100.00;97601.97;5092508;28;20006;-77
2022/02/20 01:42:44;;;;;;;;;;;;;;;8.78;100.00;97592.13;5092708;28;20031;-77
2022/02/20 01:45:15;;;;;;;;;;;;;;;8.95;100.00;97574.06;5092413;28;20393;-77
2022/02/20 01:47:42;;;;;;;;;;;;;;;9.03;100.00;97580.97;5092537;28;19928;-77
2022/02/20 01:50:10;;;;;;;;;;;;;;;9.10;100.00;97589.09;5092604;28;19956;-76
2022/02/20 01:52:43;;;;;;;;;;;;;;;9.25;100.00;97585.84;5075956;28;20045;-77
2022/02/20 01:55:11;;;;;;;;;;;;;;;9.23;100.00;97579.91;5092272;28;19924;-76
2022/02/20 01:57:53;;;;;;;;;;;;;;;9.35;100.00;97588.25;5092468;28;19951;-77
2022/02/20 02:00:41;;;;;;;;;;;;;;;9.25;100.00;97572.69;5093304;28;19924;-77
2022/02/20 02:03:40;;;;;;;;;;;;;;;9.42;100.00;97587.25;5050779;28;19976;-76
2022/02/20 02:06:13;;;;;;;;;;;;;;;9.32;100.00;97591.94;5034413;28;19931;-76
2022/02/20 02:08:42;;;;;;;;;;;;;;;9.43;100.00;97581.22;5034262;28;20524;-76
2022/02/20 02:11:33;;;;;;;;;;;;;;;9.60;100.00;97592.97;5045537;28;20055;-77
2022/02/20 02:14:04;;;;;;;;;;;;;;;9.67;100.00;97596.28;5050726;28;19932;-77
2022/02/20 02:17:01;;;;;;;;;;;;;;;9.67;100.00;97601.06;5033776;28;19952;-77
2022/02/20 02:19:42;;;;;;;;;;;;;;;9.48;100.00;97602.16;5033937;28;20027;-77
2022/02/20 02:22:28;;;;;;;;;;;;;;;9.45;100.00;97597.50;5050390;28;19932;-77
2022/02/20 02:25:15;;;;;;;;;;;;;;;9.44;100.00;97605.06;5033700;28;20311;-76
2022/02/20 02:28:05;;;;;;;;;;;;;;;9.71;100.00;97612.91;5029892;28;20360;-77
2022/02/20 02:30:36;;;;;;;;;;;;;;;9.60;100.00;97606.91;5014480;28;19933;-77
2022/02/20 02:33:04;;;;;;;;;;;;;;;9.65;100.00;97614.72;5030839;28;20389;-76
2022/02/20 02:35:32;;;;;;;;;;;;;;;9.54;100.00;97605.94;5030764;28;19936;-76
2022/02/20 02:37:59;;;;;;;;;;;;;;;9.73;100.00;97605.63;5030777;28;20022;-77
2022/02/20 02:40:27;;;;;;;;;;;;;;;9.72;100.00;97564.25;5050988;28;19967;-77
2022/02/20 02:42:54;;;;;;;;;;;;;;;9.66;100.00;97580.00;5035326;28;19925;-76
2022/02/20 02:45:27;;;;;;;;;;;;;;;9.87;100.00;97582.03;5051466;28;19940;-75
2022/02/20 02:47:54;;;;;;;;;;;;;;;9.79;100.00;97589.09;5069022;28;19968;-76
2022/02/20 02:50:23;;;;;;;;;;;;;;;9.80;100.00;97590.66;5088854;28;19975;-77
2022/02/20 02:52:55;;;;;;;;;;;;;;;9.80;100.00;97582.28;5055207;28;19996;-76
2022/02/20 02:55:22;;;;;;;;;;;;;;;9.64;100.00;97579.66;5055230;28;19935;-76
2022/02/20 02:57:51;;;;;;;;;;;;;;;9.72;100.00;97581.78;5056325;28;19932;-76
2022/02/20 03:00:18;;;;;;;;;;;;;;;9.73;100.00;97574.16;5088418;28;19924;-77
2022/02/20 03:02:45;;;;;;;;;;;;;;;9.74;100.00;97570.91;5055103;28;20375;-77
2022/02/20 03:05:12;;;;;;;;;;;;;;;9.92;100.00;97557.09;5088549;28;19936;-77
2022/02/20 03:07:43;;;;;;;;;;;;;;;10.04;100.00;97553.47;5054924;28;19925;-77
2022/02/20 03:10:11;;;;;;;;;;;;;;;10.04;100.00;97541.53;5055088;28;19975;-77
2022/02/20 03:12:38;;;;;;;;;;;;;;;10.09;100.00;97554.91;5054930;28;20387;-77
2022/02/20 03:15:07;;;;;;;;;;;;;;;9.80;100.00;97540.47;5054568;28;19932;-77
2022/02/20 03:17:34;;;;;;;;;;;;;;;10.03;100.00;97551.13;5054836;28;20019;-77
2022/02/20 03:20:02;;;;;;;;;;;;;;;9.99;100.00;97539.31;5054845;28;20478;-77
2022/02/20 03:22:31;;;;;;;;;;;;;;;9.97;100.00;97536.19;5054774;28;20340;-77
2022/02/20 03:27:55;;;;;;;;;;;;;;;10.00;100.00;97550.03;5060526;28;19982;-77
2022/02/20 03:30:30;;;;;;;;;;;;;;;10.00;100.00;97530.50;5094752;28;19928;-77
2022/02/20 03:32:59;;;;;;;;;;;;;;;10.12;100.00;97528.88;5094916;28;19924;-77
2022/02/20 03:35:26;;;;;;;;;;;;;;;10.04;100.00;97541.53;5095810;28;19931;-77
2022/02/20 03:37:55;;;;;;;;;;;;;;;10.15;100.00;97550.28;5095983;28;19962;-77
2022/02/20 03:40:30;;;;;;;;;;;;;;;10.06;100.00;97528.66;5094816;28;19924;-77
2022/02/20 03:42:59;;;;;;;;;;;;;;;10.09;100.00;97516.63;5094829;27;20011;-77
2022/02/20 03:45:41;;;;;;;;;;;;;;;10.36;100.00;97505.59;5094725;28;19924;-77
2022/02/20 03:48:08;;;;;;;;;;;;;;;10.22;100.00;97497.75;5094680;28;20023;-76
2022/02/20 03:50:39;;;;;;;;;;;;;;;10.23;100.00;97504.13;5094460;28;20253;-77
2022/02/20 03:53:06;;;;;;;;;;;;;;;10.10;100.00;97497.88;5094789;28;19931;-77
2022/02/20 03:55:34;;;;;;;;;;;;;;;10.15;100.00;97503.63;5077759;28;20010;-76
2022/02/20 03:58:01;;;;;;;;;;;;;;;10.17;100.00;97512.34;5077366;28;19924;-77
2022/02/20 04:00:40;;;;;;;;;;;;;;;10.16;100.00;97502.38;5094192;28;19924;-77
2022/02/20 04:03:22;;;;;;;;;;;;;;;10.17;100.00;97497.59;5095648;28;19924;-77
2022/02/20 04:05:52;;;;;;;;;;;;;;;10.15;100.00;97495.25;5128249;27;20352;-77
2022/02/20 04:08:21;;;;;;;;;;;;;;;10.15;100.00;97491.69;5095447;28;19970;-77
2022/02/20 04:10:52;;;;;;;;;;;;;;;10.25;100.00;97496.09;5095581;28;19924;-77
2022/02/20 04:13:41;;;;;;;;;;;;;;;10.18;100.00;97490.78;5094108;28;20461;-76
2022/02/20 04:16:14;;;;;;;;;;;;;;;10.18;100.00;97485.19;5094189;28;20007;-77
2022/02/20 04:18:49;;;;;;;;;;;;;;;10.23;100.00;97487.38;5094131;28;19931;-77
2022/02/20 04:21:26;;;;;;;;;;;;;;;10.23;100.00;97473.44;5128012;27;20033;-77
2022/02/20 04:24:01;;;;;;;;;;;;;;;10.20;100.00;97465.97;5094135;28;19931;-77
2022/02/20 04:26:29;;;;;;;;;;;;;;;10.18;100.00;97451.69;5093933;28;19925;-77
2022/02/20 04:28:56;;;;;;;;;;;;;;;10.25;100.00;97452.19;5082222;28;19924;-76
2022/02/20 04:31:23;;;;;;;;;;;;;;;10.41;100.00;97442.78;5073614;28;19931;-77
2022/02/20 04:33:57;;;;;;;;;;;;;;;10.16;100.00;97435.41;5073583;28;19931;-77
2022/02/20 04:36:25;;;;;;;;;;;;;;;10.32;100.00;97439.97;5040162;28;19924;-77
2022/02/20 04:38:57;;;;;;;;;;;;;;;10.19;100.00;97428.91;5073688;28;20015;-76
2022/02/20 04:41:26;;;;;;;;;;;;;;;10.23;100.00;97442.72;5056693;28;19924;-77
2022/02/20 04:43:56;;;;;;;;;;;;;;;10.19;100.00;97439.31;5073470;28;19931;-77
2022/02/20 04:46:24;;;;;;;;;;;;;;;10.01;100.00;97442.00;5073370;28;19928;-77
2022/02/20 04:48:51;;;;;;;;;;;;;;;10.24;100.00;97438.69;5040145;28;19929;-77
2022/02/20 04:51:41;;;;;;;;;;;;;;;10.21;100.00;97439.63;5074193;28;19932;-77
2022/02/20 04:54:12;;;;;;;;;;;;;;;10.12;100.00;97431.22;5073319;28;19924;-77
2022/02/20 04:56:42;;;;;;;;;;;;;;;10.19;100.00;97436.53;5056569;28;19924;-77
2022/02/20 04:59:13;;;;;;;;;;;;;;;10.18;100.00;97410.63;5073122;28;20320;-77
2022/02/20 05:01:44;;;;;;;;;;;;;;;10.23;100.00;97423.19;5073076;28;19925;-77
2022/02/20 05:04:20;;;;;;;;;;;;;;;10.26;100.00;97419.47;5073178;28;19924;-77
2022/02/20 05:06:49;;;;;;;;;;;;;;;10.33;100.00;97419.22;5073047;28;20387;-77
2022/02/20 05:09:23;;;;;;;;;;;;;;;10.24;100.00;97405.19;5072527;28;20009;-77
2022/02/20 05:11:56;;;;;;;;;;;;;;;10.46;100.00;97412.25;5071687;28;20355;-77
2022/02/20 05:14:24;;;;;;;;;;;;;;;10.42;100.00;97405.28;5072966;28;19928;-77
2022/02/20 05:16:53;;;;;;;;;;;;;;;10.27;100.00;97409.88;5072320;28;19932;-77
2022/02/20 05:19:43;;;;;;;;;;;;;;;10.29;100.00;97413.75;5104820;27;19931;-77
2022/02/20 05:22:10;;;;;;;;;;;;;;;10.14;100.00;97407.22;5052467;28;20074;-77
2022/02/20 05:24:45;;;;;;;;;;;;;;;10.29;100.00;97407.41;5092250;28;19928;-77
2022/02/20 05:27:13;;;;;;;;;;;;;;;10.24;100.00;97405.19;5092943;28;20282;-77
2022/02/20 05:29:41;;;;;;;;;;;;;;;10.17;100.00;97417.44;5092565;28;19950;-77
2022/02/20 05:32:11;;;;;;;;;;;;;;;10.35;100.00;97405.56;5075834;28;19943;-77
2022/02/20 05:35:06;;;;;;;;;;;;;;;10.22;100.00;97390.94;5090683;28;20048;-77
2022/02/20 05:37:44;;;;;;;;;;;;;;;10.35;100.00;97405.56;5075107;28;19931;-77
2022/02/20 05:40:14;;;;;;;;;;;;;;;10.46;100.00;97406.69;5055635;28;19925;-77
2022/02/20 05:42:52;;;;;;;;;;;;;;;10.31;100.00;97405.72;5072599;28;19931;-77
2022/02/20 05:45:21;;;;;;;;;;;;;;;10.45;100.00;97398.78;5072144;28;19924;-77
2022/02/20 05:47:48;;;;;;;;;;;;;;;10.36;100.00;97398.75;5055927;28;19925;-77
2022/02/20 05:50:15;;;;;;;;;;;;;;;10.51;100.00;97402.50;5038919;28;19939;-77
2022/02/20 05:52:46;;;;;;;;;;;;;;;10.46;100.00;97395.50;5072405;28;19971;-77
2022/02/20 05:55:15;;;;;;;;;;;;;;;10.57;100.00;97409.03;5072054;28;19924;-77
2022/02/20 05:57:49;;;;;;;;;;;;;;;10.48;100.00;97404.19;5072006;28;19925;-77
2022/02/20 06:00:24;;;;;;;;;;;;;;;10.58;100.00;97405.78;5072097;28;19928;-77
2022/02/20 06:02:55;;;;;;;;;;;;;;;10.46;100.00;97394.72;5073276;28;19928;-77
2022/02/20 06:05:34;;;;;;;;;;;;;;;10.39;100.00;97395.78;5072152;28;20014;-77
2022/02/20 06:08:22;;;;;;;;;;;;;;;10.32;100.00;97395.31;5071421;28;20215;-77
2022/02/20 06:11:01;;;;;;;;;;;;;;;10.37;100.00;97381.53;5072216;28;20027;-77
2022/02/20 06:13:54;;;;;;;;;;;;;;;10.45;100.00;97362.47;5065379;28;19932;-77
2022/02/20 06:16:37;;;;;;;;;;;;;;;10.59;100.00;97381.41;5092142;28;19930;-77
2022/02/20 06:22:57;;;;;;;;;;;;;;;10.41;100.00;97379.38;5094583;28;20343;-77
2022/02/20 06:25:33;;;;;;;;;;;;;;;10.40;100.00;97363.88;5097363;28;20303;-77
2022/02/20 06:28:07;;;;;;;;;;;;;;;10.34;100.00;97367.72;5079197;28;19924;-77
2022/02/20 06:30:35;;;;;;;;;;;;;;;10.27;100.00;97379.19;5095774;28;19935;-77
2022/02/20 06:33:05;;;;;;;;;;;;;;;10.37;100.00;97364.78;5095866;28;19930;-77
2022/02/20 06:35:36;;;;;;;;;;;;;;;10.47;100.00;97362.75;5095947;28;19977;-77
2022/02/20 06:38:03;;;;;;;;;;;;;;;10.47;100.00;97362.75;5095713;28;19961;-77
2022/02/20 06:40:30;;;;;;;;;;;;;;;10.27;100.00;97342.91;5095944;28;19931;-77
2022/02/20 06:42:59;;;;;;;;;;;;;;;10.26;100.00;97364.44;5095778;28;20015;-77
2022/02/20 06:45:28;;;;;;;;;;;;;;;10.36;100.00;97354.84;5078613;28;20396;-77
2022/02/20 06:48:05;;;;;;;;;;;;;;;10.38;100.00;97365.53;5129739;27;19924;-77
2022/02/20 06:50:51;;;;;;;;;;;;;;;10.36;100.00;97363.22;5081408;28;19932;-77
2022/02/20 06:53:38;;;;;;;;;;;;;;;10.45;100.00;97354.09;5075220;28;19970;-77
2022/02/20 06:56:31;;;;;;;;;;;;;;;10.41;100.00;97342.28;5056230;28;19932;-77
2022/02/20 06:58:59;;;;;;;;;;;;;;;10.61;100.00;97348.19;5076329;28;20276;-77
2022/02/20 07:01:26;;;;;;;;;;;;;;;10.42;100.00;97332.69;5075184;28;19924;-77
2022/02/20 07:03:53;;;;;;;;;;;;;;;10.60;100.00;97343.88;5076426;28;20454;-79
2022/02/20 07:06:21;;;;;;;;;;;;;;;10.59;100.00;97342.28;5074740;28;19925;-76
2022/02/20 07:08:50;;;;;;;;;;;;;;;10.60;100.00;97349.47;5095672;28;19925;-76
2022/02/20 07:11:17;;;;;;;;;;;;;;;10.49;100.00;97352.72;5095181;28;19924;-76
2022/02/20 07:13:44;;;;;;;;;;;;;;;10.39;100.00;97344.78;5111457;28;19931;-76
2022/02/20 07:16:12;;;;;;;;;;;;;;;10.52;100.00;97348.19;5095834;28;19924;-76
2022/02/20 07:18:38;;;;;;;;;;;;;;;10.42;100.00;97347.41;5095607;28;19931;-76
2022/02/20 07:21:06;;;;;;;;;;;;;;;10.56;100.00;97327.25;5094285;28;19947;-75
2022/02/20 07:23:33;;;;;;;;;;;;;;;10.55;100.00;97336.88;5095812;28;19924;-75
2022/02/20 07:26:00;;;;;;;;;;;;;;;10.47;100.00;97324.47;5095867;28;19974;-75
2022/02/20 07:28:27;;;;;;;;;;;;;;;10.75;100.00;97312.03;5094306;28;20021;-75
2022/02/20 07:30:54;;;;;;;;;;;;;;;10.57;100.00;97322.47;5094785;28;20128;-75
2022/02/20 07:33:21;;;;;;;;;;;;;;;10.68;100.00;97303.19;5089730;28;19928;-75
2022/02/20 07:35:48;;;;;;;;;;;;;;;10.70;100.00;97311.91;5075288;28;19925;-75
2022/02/20 07:38:16;;;;;;;;;;;;;;;10.70;100.00;97298.72;5075183;28;19924;-75
2022/02/20 07:40:43;;;;;;;;;;;;;;;10.78;100.00;97307.56;5075115;28;19970;-75
2022/02/20 07:43:10;;;;;;;;;;;;;;;10.85;100.00;97298.84;5070210;28;19924;-75
2022/02/20 07:45:38;;;;;;;;;;;;;;;10.83;100.00;97295.75;5099500;28;19931;-75
2022/02/20 07:48:05;;;;;;;;;;;;;;;10.69;100.00;97296.41;5074259;28;19935;-75
2022/02/20 07:50:33;;;;;;;;;;;;;;;10.96;100.00;97307.53;5073890;28;19978;-75
2022/02/20 07:53:01;;;;;;;;;;;;;;;10.87;100.00;97301.97;5074081;28;19931;-75
2022/02/20 07:55:28;;;;;;;;;;;;;;;10.90;100.00;97292.66;5075547;28;19932;-75
2022/02/20 07:58:02;;;;;;;;;;;;;;;10.95;100.00;97287.19;5073703;28;20284;-75
2022/02/20 08:00:30;;;;;;;;;;;;;;;10.93;100.00;97289.66;5074956;28;19924;-75
2022/02/20 08:02:58;;;;;;;;;;;;;;;10.82;100.00;97289.41;5073821;28;20384;-75
2022/02/20 08:05:26;;;;;;;;;;;;;;;10.97;100.00;97289.53;5073664;28;19924;-75
2022/02/20 08:07:53;;;;;;;;;;;;;;;10.77;100.00;97283.66;5078014;28;19924;-76
2022/02/20 08:10:21;;;;;;;;;;;;;;;11.00;100.00;97294.16;5074679;28;20022;-75
2022/02/20 08:12:48;;;;;;;;;;;;;;;10.81;100.00;97293.41;5060480;28;19933;-75
2022/02/20 08:15:15;;;;;;;;;;;;;;;10.92;100.00;97295.72;5107374;28;19928;-75
2022/02/20 08:17:43;;;;;;;;;;;;;;;10.94;100.00;97291.25;5084712;28;19924;-75
2022/02/20 08:20:11;;;;;;;;;;;;;;;10.95;100.00;97280.81;5093494;28;20346;-75
2022/02/20 08:22:38;;;;;;;;;;;;;;;11.08;100.00;97295.41;5093831;28;19924;-74
2022/02/20 08:25:06;;;;;;;;;;;;;;;11.12;100.00;97296.00;5094833;28;20031;-74
2022/02/20 08:27:34;;;;;;;;;;;;;;;11.19;100.00;97295.69;5094717;28;19947;-73
2022/02/20 08:30:05;;;;;;;;;;;;;;;11.01;100.00;97284.56;5076943;28;19924;-73
2022/02/20 08:32:32;;;;;;;;;;;;;;;11.13;100.00;97280.81;5094882;28;19928;-73
2022/02/20 08:34:59;;;;;;;;;;;;;;;11.19;100.00;97278.94;5127431;27;19928;-74
2022/02/20 08:37:27;;;;;;;;;;;;;;;11.11;100.00;97269.31;5094781;28;19930;-74
2022/02/20 08:39:54;;;;;;;;;;;;;;;11.06;100.00;97275.53;5079666;28;19947;-73
2022/02/20 08:42:21;;;;;;;;;;;;;;;11.27;100.00;97268.94;5074434;28;19924;-77
2022/02/20 08:44:48;;;;;;;;;;;;;;;11.36;100.00;97260.53;5074486;28;19925;-77
2022/02/20 08:47:15;;;;;;;;;;;;;;;11.44;100.00;97250.56;5073958;28;19924;-77
2022/02/20 08:49:42;;;;;;;;;;;;;;;11.23;100.00;97242.41;5071939;28;19986;-77
2022/02/20 08:52:11;;;;;;;;;;;;;;;11.37;100.00;97262.09;5054274;28;19925;-76
2022/02/20 08:54:38;;;;;;;;;;;;;;;11.32;100.00;97248.75;5073414;28;19924;-77
2022/02/20 08:57:08;;;;;;;;;;;;;;;11.41;100.00;97262.69;5088031;28;19928;-77
2022/02/20 08:59:35;;;;;;;;;;;;;;;11.28;100.00;97248.16;5094411;28;19985;-76
2022/02/20 09:02:04;;;;;;;;;;;;;;;11.42;100.00;97264.22;5092248;28;20516;-77
2022/02/20 09:04:31;;;;;;;;;;;;;;;11.27;100.00;97245.81;5074946;28;19924;-76
2022/02/20 09:06:58;;;;;;;;;;;;;;;11.33;100.00;97239.09;5070548;28;19986;-77
2022/02/20 09:09:25;;;;;;;;;;;;;;;11.30;100.00;97247.69;5070777;28;19986;-78
2022/02/20 09:11:52;;;;;;;;;;;;;;;11.21;100.00;97230.94;5072515;28;19946;-77
2022/02/20 09:14:21;;;;;;;;;;;;;;;11.50;100.00;97220.72;5072967;28;21610;-78
2022/02/20 09:16:48;;;;;;;;;;;;;;;11.60;100.00;97225.00;5086812;28;20020;-79
2022/02/20 09:19:15;;;;;;;;;;;;;;;11.41;100.00;97208.78;5093428;28;19924;-79
2022/02/20 09:21:42;;;;;;;;;;;;;;;11.29;100.00;97227.31;5093241;28;20342;-78
2022/02/20 09:24:09;;;;;;;;;;;;;;;11.59;100.00;97215.06;5091926;28;19924;-78
2022/02/20 09:26:36;;;;;;;;;;;;;;;11.49;100.00;97207.19;5093167;28;19934;-78
2022/02/20 09:29:03;;;;;;;;;;;;;;;11.40;100.00;97210.81;5093143;28;19924;-78
2022/02/20 09:31:30;;;;;;;;;;;;;;;11.52;100.00;97212.63;5083892;28;19931;-79
2022/02/20 09:33:58;;;;;;;;;;;;;;;11.52;100.00;97198.66;5067396;28;20316;-78
2022/02/20 09:36:27;;;;;;;;;;;;;;;11.52;100.00;97195.84;5067068;28;20403;-78
2022/02/20 09:38:55;;;;;;;;;;;;;;;11.71;100.00;97202.91;5073581;28;20418;-78
2022/02/20 09:41:27;;;;;;;;;;;;;;;11.43;100.00;97207.09;5072434;28;19971;-78
2022/02/20 09:43:55;;;;;;;;;;;;;;;11.36;100.00;97193.44;5053746;28;20078;-78
2022/02/20 09:46:22;;;;;;;;;;;;;;;11.60;100.00;97199.81;5053457;28;19925;-78
2022/02/20 09:48:51;;;;;;;;;;;;;;;11.57;100.00;97208.41;5052355;28;19924;-78
2022/02/20 09:51:18;;;;;;;;;;;;;;;11.47;100.00;97184.50;5085329;28;19925;-78
2022/02/20 09:53:45;;;;;;;;;;;;;;;11.45;100.00;97189.81;5052290;28;19935;-78
2022/02/20 09:56:13;;;;;;;;;;;;;;;11.60;100.00;97188.63;5052279;28;19925;-78
2022/02/20 09:58:40;;;;;;;;;;;;;;;11.51;100.00;97177.50;5057231;28;19925;-78
2022/02/20 10:01:08;;;;;;;;;;;;;;;11.63;100.00;97181.38;5057369;28;19925;-78
2022/02/20 10:03:36;;;;;;;;;;;;;;;11.75;100.00;97175.53;5057317;28;19924;-78
2022/02/20 10:06:05;;;;;;;;;;;;;;;11.76;100.00;97154.69;5056276;28;20447;-78
2022/02/20 10:09:02;;;;;;;;;;;;;;;11.64;100.00;97158.50;5057946;28;19925;-78
2022/02/20 10:11:30;;;;;;;;;;;;;;;11.56;100.00;97162.09;5066773;28;19946;-78
2022/02/20 10:14:04;;;;;;;;;;;;;;;11.76;100.00;97153.91;5083415;28;19925;-78
2022/02/20 10:16:32;;;;;;;;;;;;;;;11.79;100.00;97152.97;5080999;28;19931;-78
2022/02/20 10:19:00;;;;;;;;;;;;;;;11.73;100.00;97158.44;5076641;28;19932;-78
2022/02/20 10:21:46;;;;;;;;;;;;;;;11.51;100.00;97127.16;5076935;28;19924;-78
2022/02/20 10:24:33;;;;;;;;;;;;;;;11.65;100.00;97131.28;5077099;28;20335;-78
2022/02/20 10:27:19;;;;;;;;;;;;;;;11.73;100.00;97127.69;5088878;28;19950;-78
2022/02/20 10:30:19;;;;;;;;;;;;;;;11.87;100.00;97118.56;5095837;28;20347;-79
2022/02/20 10:33:05;;;;;;;;;;;;;;;12.00;100.00;97119.06;5097204;28;19932;-78
2022/02/20 10:35:34;;;;;;;;;;;;;;;11.83;100.00;97115.16;5096923;28;20405;-78
2022/02/20 10:38:08;;;;;;;;;;;;;;;11.62;100.00;97121.03;5095430;28;19947;-78
2022/02/20 10:40:35;;;;;;;;;;;;;;;11.66;100.00;97122.44;5076950;28;19969;-79
2022/02/20 10:43:04;;;;;;;;;;;;;;;11.50;100.00;97114.44;5075656;28;19924;-79
2022/02/20 10:45:33;;;;;;;;;;;;;;;11.58;100.00;97096.06;5075175;28;19924;-79
2022/02/20 10:48:01;;;;;;;;;;;;;;;11.76;100.00;97106.34;5076862;28;20013;-78
2022/02/20 10:50:29;;;;;;;;;;;;;;;11.77;100.00;97094.69;5076529;28;19924;-78
2022/02/20 10:53:06;;;;;;;;;;;;;;;11.92;100.00;97100.34;5058686;28;19924;-78
2022/02/20 10:55:38;;;;;;;;;;;;;;;11.73;100.00;97085.72;5075422;28;19925;-79
2022/02/20 10:58:12;;;;;;;;;;;;;;;11.91;100.00;97079.19;5076572;28;19991;-79
2022/02/20 11:00:48;;;;;;;;;;;;;;;12.00;100.00;97071.50;5075146;28;20022;-79
2022/02/20 11:03:17;;;;;;;;;;;;;;;11.89;100.00;97065.69;5075326;28;19932;-79
2022/02/20 11:05:45;;;;;;;;;;;;;;;11.70;100.00;97061.50;5058885;28;19924;-79
2022/02/20 11:08:13;;;;;;;;;;;;;;;11.95;100.00;97060.19;5075551;28;19924;-79
2022/02/20 11:10:41;;;;;;;;;;;;;;;11.98;100.00;97042.44;5076205;28;19924;-79
2022/02/20 11:13:09;;;;;;;;;;;;;;;12.00;100.00;97049.09;5074680;28;19928;-79
2022/02/20 11:15:37;;;;;;;;;;;;;;;12.04;100.00;97041.28;5076328;28;19939;-79
2022/02/20 11:18:05;;;;;;;;;;;;;;;12.01;100.00;97025.44;5076286;28;19928;-78
2022/02/20 11:20:34;;;;;;;;;;;;;;;12.01;100.00;97028.25;5076084;28;20360;-79
2022/02/20 11:23:04;;;;;;;;;;;;;;;12.09;100.00;97026.63;5058302;28;19924;-79
2022/02/20 11:25:32;;;;;;;;;;;;;;;12.02;100.00;97009.44;5074868;28;19943;-78
2022/02/20 11:28:00;;;;;;;;;;;;;;;11.94;100.00;97009.06;5075811;28;20368;-79
2022/02/20 11:30:28;;;;;;;;;;;;;;;11.88;100.00;97005.38;5076045;28;19935;-78
2022/02/20 11:32:56;;;;;;;;;;;;;;;11.96;100.00;97005.78;5074725;28;19924;-79
2022/02/20 11:35:23;;;;;;;;;;;;;;;11.87;100.00;96995.44;5075694;28;20015;-78
2022/02/20 11:37:56;;;;;;;;;;;;;;;11.88;100.00;96999.78;5075892;28;20327;-78
2022/02/20 11:40:24;;;;;;;;;;;;;;;11.98;100.00;96998.44;5074719;28;19925;-79
2022/02/20 11:43:00;;;;;;;;;;;;;;;11.89;100.00;96978.94;5074430;28;19924;-79
2022/02/20 11:45:28;;;;;;;;;;;;;;;11.90;100.00;96977.69;5075732;28;19928;-79
2022/02/20 11:48:14;;;;;;;;;;;;;;;12.02;100.00;96987.06;5075555;28;19924;-78
2022/02/20 11:50:44;;;;;;;;;;;;;;;11.73;100.00;96981.44;5074358;28;20385;-77
2022/02/20 11:53:12;;;;;;;;;;;;;;;12.00;100.00;96961.56;5076820;28;20368;-77
2022/02/20 11:55:41;;;;;;;;;;;;;;;11.96;100.00;96955.41;5075365;28;19925;-78
2022/02/20 11:58:16;;;;;;;;;;;;;;;11.92;100.00;96943.63;5108633;28;19928;-78
2022/02/20 12:00:56;;;;;;;;;;;;;;;11.84;100.00;96943.25;5094395;28;19924;-78
2022/02/20 12:03:30;;;;;;;;;;;;;;;11.97;100.00;96926.94;5095435;28;19993;-78
2022/02/20 12:06:15;;;;;;;;;;;;;;;11.96;100.00;96927.41;5095622;28;19928;-78
2022/02/20 12:08:46;;;;;;;;;;;;;;;12.01;100.00;96929.53;5095540;28;19925;-78
2022/02/20 12:11:23;;;;;;;;;;;;;;;11.97;100.00;96918.53;5071965;28;19925;-78
2022/02/20 12:13:51;;;;;;;;;;;;;;;11.96;100.00;96910.63;5072906;28;19999;-78
2022/02/20 12:16:27;;;;;;;;;;;;;;;11.94;100.00;96902.72;5073681;28;19936;-78
2022/02/20 12:19:13;;;;;;;;;;;;;;;11.86;100.00;96900.81;5074579;28;19929;-78
2022/02/20 12:21:56;;;;;;;;;;;;;;;11.94;100.00;96891.53;5074846;28;19928;-78
2022/02/20 12:24:39;;;;;;;;;;;;;;;11.99;100.00;96882.44;5073788;28;19924;-78
2022/02/20 12:27:06;;;;;;;;;;;;;;;12.02;100.00;96878.69;5074628;28;19929;-79
2022/02/20 12:29:38;;;;;;;;;;;;;;;12.08;100.00;96868.34;5074827;28;19928;-78
2022/02/20 12:32:14;;;;;;;;;;;;;;;12.00;100.00;96866.41;5074101;28;19924;-78
2022/02/20 12:35:02;;;;;;;;;;;;;;;12.10;100.00;96860.22;5074203;28;19925;-78
2022/02/20 12:37:31;;;;;;;;;;;;;;;12.05;100.00;96841.34;5091900;28;19931;-79
2022/02/20 12:40:07;;;;;;;;;;;;;;;11.93;100.00;96848.00;5073555;28;19974;-78
2022/02/20 12:42:39;;;;;;;;;;;;;;;11.78;100.00;96843.69;5081567;28;19924;-78
2022/02/20 12:45:17;;;;;;;;;;;;;;;12.01;100.00;96828.81;5094289;28;19924;-78
2022/02/20 12:47:47;;;;;;;;;;;;;;;11.90;100.00;96811.84;5094545;28;19924;-78
2022/02/20 12:50:15;;;;;;;;;;;;;;;11.93;100.00;96811.66;5084040;28;19925;-76
2022/02/20 12:52:44;;;;;;;;;;;;;;;11.99;100.00;96804.09;5073080;28;20395;-77
2022/02/20 12:55:14;;;;;;;;;;;;;;;11.97;100.00;96806.59;5059149;28;19932;-78
2022/02/20 12:57:42;;;;;;;;;;;;;;;12.01;100.00;96784.03;5053117;28;19925;-78
2022/02/20 13:00:12;;;;;;;;;;;;;;;11.97;100.00;96772.25;5053710;28;19925;-78
2022/02/20 13:02:39;;;;;;;;;;;;;;;12.11;100.00;96771.44;5064401;28;19925;-78
2022/02/20 13:05:07;;;;;;;;;;;;;;;11.92;100.00;96762.50;5074006;28;19924;-77